Terminal Aerodrome Forecast
Issued by NWS

Home | Current Version | Previous Version | Text Only | Print | Product List | Glossary On
Versions: 1 2 3 4 5 6 7 8 9 10 11 12 13 14 15 16 17 18 19 20 21 22
000
FTUS43 KGLD 241120
TAFMCK
TAF
KMCK 241120Z 2412/2512 VRB05KT P6SM SKC
     FM242100 18007KT P6SM SKC
     FM250100 14009KT P6SM SKC
     FM250600 15010KT P6SM SKC WS020/19040KT
     FM251100 15007KT P6SM SKC=

USA.gov is the U.S. government's official web portal to all federal, state and local government web resources and services.